sensor_id;sensor_type;location;lat;lon;timestamp;P1;durP1;ratioP1;P2;durP2;ratioP2
22837;SDS011;11585;51.450;-0.240;2023-04-24T00:00:55;49.65;;;22.02;;
22837;SDS011;11585;51.450;-0.240;2023-04-24T00:03:26;44.72;;;22.70;;
22837;SDS011;11585;51.450;-0.240;2023-04-24T00:05:53;44.22;;;20.67;;
22837;SDS011;11585;51.450;-0.240;2023-04-24T00:18:25;41.75;;;20.80;;
22837;SDS011;11585;51.450;-0.240;2023-04-24T00:20:50;42.92;;;19.77;;
22837;SDS011;11585;51.450;-0.240;2023-04-24T00:23:16;42.50;;;19.75;;
22837;SDS011;11585;51.450;-0.240;2023-04-24T00:25:41;44.65;;;20.92;;
22837;SDS011;11585;51.450;-0.240;2023-04-24T00:28:08;41.17;;;20.08;;
22837;SDS011;11585;51.450;-0.240;2023-04-24T00:30:34;42.80;;;20.90;;
22837;SDS011;11585;51.450;-0.240;2023-04-24T00:32:59;39.83;;;19.90;;
22837;SDS011;11585;51.450;-0.240;2023-04-24T00:35:25;41.70;;;19.65;;
22837;SDS011;11585;51.450;-0.240;2023-04-24T00:41:13;40.70;;;18.55;;
22837;SDS011;11585;51.450;-0.240;2023-04-24T00:43:38;41.42;;;19.17;;
22837;SDS011;11585;51.450;-0.240;2023-04-24T00:46:04;47.17;;;21.75;;
22837;SDS011;11585;51.450;-0.240;2023-04-24T00:51:53;42.22;;;20.30;;
22837;SDS011;11585;51.450;-0.240;2023-04-24T00:54:18;37.72;;;18.65;;
22837;SDS011;11585;51.450;-0.240;2023-04-24T00:56:44;40.75;;;20.13;;
22837;SDS011;11585;51.450;-0.240;2023-04-24T01:02:33;38.33;;;19.58;;
22837;SDS011;11585;51.450;-0.240;2023-04-24T01:04:59;41.60;;;20.17;;
22837;SDS011;11585;51.450;-0.240;2023-04-24T01:10:15;50.42;;;20.60;;
22837;SDS011;11585;51.450;-0.240;2023-04-24T01:12:42;48.88;;;20.55;;
22837;SDS011;11585;51.450;-0.240;2023-04-24T01:15:08;40.25;;;19.88;;
22837;SDS011;11585;51.450;-0.240;2023-04-24T01:24:19;45.50;;;20.55;;
22837;SDS011;11585;51.450;-0.240;2023-04-24T01:26:45;44.22;;;19.90;;
22837;SDS011;11585;51.450;-0.240;2023-04-24T01:32:33;42.25;;;20.13;;
22837;SDS011;11585;51.450;-0.240;2023-04-24T01:34:59;45.67;;;20.35;;
22837;SDS011;11585;51.450;-0.240;2023-04-24T01:37:25;46.80;;;19.02;;
22837;SDS011;11585;51.450;-0.240;2023-04-24T01:39:51;38.83;;;20.02;;
22837;SDS011;11585;51.450;-0.240;2023-04-24T01:42:17;43.33;;;20.65;;
22837;SDS011;11585;51.450;-0.240;2023-04-24T01:44:46;45.25;;;21.30;;
22837;SDS011;11585;51.450;-0.240;2023-04-24T01:47:12;45.53;;;21.13;;
22837;SDS011;11585;51.450;-0.240;2023-04-24T01:49:38;44.35;;;20.17;;
22837;SDS011;11585;51.450;-0.240;2023-04-24T01:52:04;48.17;;;21.95;;
22837;SDS011;11585;51.450;-0.240;2023-04-24T01:54:30;46.80;;;21.95;;
22837;SDS011;11585;51.450;-0.240;2023-04-24T01:56:56;47.05;;;22.95;;
22837;SDS011;11585;51.450;-0.240;2023-04-24T02:02:49;46.15;;;20.30;;
22837;SDS011;11585;51.450;-0.240;2023-04-24T02:05:17;45.28;;;20.13;;
22837;SDS011;11585;51.450;-0.240;2023-04-24T02:11:07;44.75;;;20.25;;
22837;SDS011;11585;51.450;-0.240;2023-04-24T02:13:34;43.92;;;20.50;;
22837;SDS011;11585;51.450;-0.240;2023-04-24T02:16:00;41.28;;;20.23;;
22837;SDS011;11585;51.450;-0.240;2023-04-24T02:21:47;38.83;;;18.90;;
22837;SDS011;11585;51.450;-0.240;2023-04-24T02:24:13;40.63;;;19.85;;
22837;SDS011;11585;51.450;-0.240;2023-04-24T02:26:39;48.03;;;20.80;;
22837;SDS011;11585;51.450;-0.240;2023-04-24T02:32:08;41.80;;;19.17;;
22837;SDS011;11585;51.450;-0.240;2023-04-24T02:34:37;35.92;;;18.45;;
22837;SDS011;11585;51.450;-0.240;2023-04-24T02:37:02;40.72;;;19.40;;
22837;SDS011;11585;51.450;-0.240;2023-04-24T02:42:14;38.83;;;19.60;;
22837;SDS011;11585;51.450;-0.240;2023-04-24T02:44:40;42.85;;;19.90;;
22837;SDS011;11585;51.450;-0.240;2023-04-24T02:47:06;41.80;;;18.95;;
22837;SDS011;11585;51.450;-0.240;2023-04-24T02:49:33;37.45;;;18.33;;
22837;SDS011;11585;51.450;-0.240;2023-04-24T02:51:59;36.83;;;18.05;;
22837;SDS011;11585;51.450;-0.240;2023-04-24T02:54:25;45.05;;;19.73;;
22837;SDS011;11585;51.450;-0.240;2023-04-24T02:56:50;44.22;;;18.70;;
22837;SDS011;11585;51.450;-0.240;2023-04-24T03:02:38;33.30;;;17.50;;
22837;SDS011;11585;51.450;-0.240;2023-04-24T03:05:06;33.70;;;17.35;;
22837;SDS011;11585;51.450;-0.240;2023-04-24T03:10:57;37.58;;;18.25;;
22837;SDS011;11585;51.450;-0.240;2023-04-24T03:13:26;34.53;;;17.13;;
22837;SDS011;11585;51.450;-0.240;2023-04-24T03:22:32;35.17;;;17.23;;
22837;SDS011;11585;51.450;-0.240;2023-04-24T03:25:01;33.08;;;17.83;;
22837;SDS011;11585;51.450;-0.240;2023-04-24T03:31:10;37.75;;;17.42;;
22837;SDS011;11585;51.450;-0.240;2023-04-24T03:40:47;39.72;;;17.33;;
22837;SDS011;11585;51.450;-0.240;2023-04-24T03:43:16;36.10;;;18.08;;
22837;SDS011;11585;51.450;-0.240;2023-04-24T03:45:41;35.28;;;17.85;;
22837;SDS011;11585;51.450;-0.240;2023-04-24T03:51:29;31.48;;;17.20;;
22837;SDS011;11585;51.450;-0.240;2023-04-24T03:53:57;39.42;;;17.65;;
22837;SDS011;11585;51.450;-0.240;2023-04-24T03:56:23;34.78;;;18.17;;
22837;SDS011;11585;51.450;-0.240;2023-04-24T04:02:11;36.85;;;17.33;;
22837;SDS011;11585;51.450;-0.240;2023-04-24T04:11:05;38.10;;;17.75;;
22837;SDS011;11585;51.450;-0.240;2023-04-24T04:13:36;34.55;;;16.30;;
22837;SDS011;11585;51.450;-0.240;2023-04-24T04:16:33;34.72;;;16.63;;
22837;SDS011;11585;51.450;-0.240;2023-04-24T04:22:25;32.75;;;17.38;;
22837;SDS011;11585;51.450;-0.240;2023-04-24T04:25:06;33.53;;;17.08;;
22837;SDS011;11585;51.450;-0.240;2023-04-24T04:30:37;36.10;;;16.90;;
22837;SDS011;11585;51.450;-0.240;2023-04-24T04:33:03;35.53;;;18.85;;
22837;SDS011;11585;51.450;-0.240;2023-04-24T04:35:29;32.20;;;16.60;;
22837;SDS011;11585;51.450;-0.240;2023-04-24T04:41:16;39.30;;;16.48;;
22837;SDS011;11585;51.450;-0.240;2023-04-24T04:43:43;30.05;;;16.02;;
22837;SDS011;11585;51.450;-0.240;2023-04-24T04:46:08;35.03;;;17.10;;
22837;SDS011;11585;51.450;-0.240;2023-04-24T04:55:20;34.17;;;16.65;;
22837;SDS011;11585;51.450;-0.240;2023-04-24T05:00:34;33.47;;;17.13;;
22837;SDS011;11585;51.450;-0.240;2023-04-24T05:03:02;35.63;;;16.88;;
22837;SDS011;11585;51.450;-0.240;2023-04-24T05:05:28;34.97;;;17.52;;
22837;SDS011;11585;51.450;-0.240;2023-04-24T05:11:19;30.77;;;16.77;;
22837;SDS011;11585;51.450;-0.240;2023-04-24T05:17:09;32.22;;;15.70;;
22837;SDS011;11585;51.450;-0.240;2023-04-24T05:22:59;31.60;;;16.10;;
22837;SDS011;11585;51.450;-0.240;2023-04-24T05:25:25;39.72;;;17.45;;
22837;SDS011;11585;51.450;-0.240;2023-04-24T05:31:13;41.35;;;17.35;;
22837;SDS011;11585;51.450;-0.240;2023-04-24T05:33:38;33.55;;;16.90;;
22837;SDS011;11585;51.450;-0.240;2023-04-24T05:36:04;39.83;;;16.55;;
22837;SDS011;11585;51.450;-0.240;2023-04-24T05:41:56;34.58;;;17.33;;
22837;SDS011;11585;51.450;-0.240;2023-04-24T05:44:23;40.33;;;18.60;;
22837;SDS011;11585;51.450;-0.240;2023-04-24T05:46:54;46.17;;;18.15;;
22837;SDS011;11585;51.450;-0.240;2023-04-24T05:52:53;36.78;;;17.45;;
22837;SDS011;11585;51.450;-0.240;2023-04-24T05:55:23;40.45;;;17.73;;
22837;SDS011;11585;51.450;-0.240;2023-04-24T06:01:14;40.53;;;18.50;;
22837;SDS011;11585;51.450;-0.240;2023-04-24T06:03:40;36.05;;;17.80;;
22837;SDS011;11585;51.450;-0.240;2023-04-24T06:06:06;40.92;;;18.25;;
22837;SDS011;11585;51.450;-0.240;2023-04-24T06:11:54;41.65;;;18.65;;
22837;SDS011;11585;51.450;-0.240;2023-04-24T06:14:21;37.28;;;18.17;;
22837;SDS011;11585;51.450;-0.240;2023-04-24T06:16:47;36.67;;;17.25;;
22837;SDS011;11585;51.450;-0.240;2023-04-24T06:22:35;34.72;;;15.55;;
22837;SDS011;11585;51.450;-0.240;2023-04-24T06:28:23;38.65;;;17.20;;
22837;SDS011;11585;51.450;-0.240;2023-04-24T06:30:48;42.20;;;17.13;;
22837;SDS011;11585;51.450;-0.240;2023-04-24T06:33:14;38.20;;;17.27;;
22837;SDS011;11585;51.450;-0.240;2023-04-24T06:35:39;37.30;;;15.98;;
22837;SDS011;11585;51.450;-0.240;2023-04-24T06:41:27;27.83;;;9.82;;
22837;SDS011;11585;51.450;-0.240;2023-04-24T06:43:54;20.20;;;8.48;;
22837;SDS011;11585;51.450;-0.240;2023-04-24T06:46:19;16.20;;;7.38;;
22837;SDS011;11585;51.450;-0.240;2023-04-24T06:52:10;19.90;;;7.45;;
22837;SDS011;11585;51.450;-0.240;2023-04-24T06:54:41;20.75;;;6.55;;
22837;SDS011;11585;51.450;-0.240;2023-04-24T07:00:42;13.88;;;5.22;;
22837;SDS011;11585;51.450;-0.240;2023-04-24T07:03:10;19.17;;;6.70;;
22837;SDS011;11585;51.450;-0.240;2023-04-24T07:12:21;14.15;;;5.22;;
22837;SDS011;11585;51.450;-0.240;2023-04-24T07:15:05;14.80;;;4.68;;
22837;SDS011;11585;51.450;-0.240;2023-04-24T07:17:42;20.83;;;5.50;;
22837;SDS011;11585;51.450;-0.240;2023-04-24T07:20:12;16.75;;;5.35;;
22837;SDS011;11585;51.450;-0.240;2023-04-24T07:22:39;14.68;;;4.60;;
22837;SDS011;11585;51.450;-0.240;2023-04-24T07:25:05;12.73;;;4.65;;
22837;SDS011;11585;51.450;-0.240;2023-04-24T07:30:54;12.95;;;4.60;;
22837;SDS011;11585;51.450;-0.240;2023-04-24T07:33:20;12.10;;;4.07;;
22837;SDS011;11585;51.450;-0.240;2023-04-24T07:35:46;13.15;;;4.10;;
22837;SDS011;11585;51.450;-0.240;2023-04-24T07:41:17;14.55;;;4.50;;
22837;SDS011;11585;51.450;-0.240;2023-04-24T07:43:44;8.63;;;3.80;;
22837;SDS011;11585;51.450;-0.240;2023-04-24T07:46:09;13.40;;;3.97;;
22837;SDS011;11585;51.450;-0.240;2023-04-24T07:48:35;15.35;;;3.53;;
22837;SDS011;11585;51.450;-0.240;2023-04-24T07:51:01;29.52;;;10.18;;
22837;SDS011;11585;51.450;-0.240;2023-04-24T07:53:27;12.93;;;4.10;;
22837;SDS011;11585;51.450;-0.240;2023-04-24T07:55:54;11.43;;;3.90;;
22837;SDS011;11585;51.450;-0.240;2023-04-24T07:58:21;13.75;;;3.80;;
22837;SDS011;11585;51.450;-0.240;2023-04-24T08:00:47;13.10;;;3.83;;
22837;SDS011;11585;51.450;-0.240;2023-04-24T08:03:13;15.30;;;4.30;;
22837;SDS011;11585;51.450;-0.240;2023-04-24T08:05:39;11.20;;;4.38;;
22837;SDS011;11585;51.450;-0.240;2023-04-24T08:08:06;12.27;;;4.63;;
22837;SDS011;11585;51.450;-0.240;2023-04-24T08:10:32;18.75;;;4.63;;
22837;SDS011;11585;51.450;-0.240;2023-04-24T08:12:58;10.63;;;4.57;;
22837;SDS011;11585;51.450;-0.240;2023-04-24T08:15:23;10.13;;;4.05;;
22837;SDS011;11585;51.450;-0.240;2023-04-24T08:17:49;22.92;;;4.25;;
22837;SDS011;11585;51.450;-0.240;2023-04-24T08:20:15;14.20;;;4.57;;
22837;SDS011;11585;51.450;-0.240;2023-04-24T08:22:41;12.48;;;4.30;;
22837;SDS011;11585;51.450;-0.240;2023-04-24T08:25:08;14.55;;;4.85;;
22837;SDS011;11585;51.450;-0.240;2023-04-24T08:27:35;10.50;;;4.65;;
22837;SDS011;11585;51.450;-0.240;2023-04-24T08:30:01;12.05;;;5.22;;
22837;SDS011;11585;51.450;-0.240;2023-04-24T08:32:30;15.23;;;5.07;;
22837;SDS011;11585;51.450;-0.240;2023-04-24T08:34:56;13.20;;;4.93;;
22837;SDS011;11585;51.450;-0.240;2023-04-24T08:37:22;11.20;;;4.55;;
22837;SDS011;11585;51.450;-0.240;2023-04-24T08:39:49;9.05;;;4.60;;
22837;SDS011;11585;51.450;-0.240;2023-04-24T08:42:15;11.55;;;4.47;;
22837;SDS011;11585;51.450;-0.240;2023-04-24T08:44:43;14.43;;;4.13;;
22837;SDS011;11585;51.450;-0.240;2023-04-24T08:47:09;12.50;;;4.25;;
22837;SDS011;11585;51.450;-0.240;2023-04-24T08:49:36;12.88;;;4.72;;
22837;SDS011;11585;51.450;-0.240;2023-04-24T08:52:03;11.30;;;4.28;;
22837;SDS011;11585;51.450;-0.240;2023-04-24T08:54:30;10.57;;;4.10;;
22837;SDS011;11585;51.450;-0.240;2023-04-24T08:57:00;15.55;;;4.68;;
22837;SDS011;11585;51.450;-0.240;2023-04-24T08:59:27;9.75;;;4.47;;
22837;SDS011;11585;51.450;-0.240;2023-04-24T09:01:53;16.00;;;5.30;;
22837;SDS011;11585;51.450;-0.240;2023-04-24T09:04:20;14.95;;;4.50;;
22837;SDS011;11585;51.450;-0.240;2023-04-24T09:06:49;11.43;;;4.85;;
22837;SDS011;11585;51.450;-0.240;2023-04-24T09:09:20;11.48;;;4.97;;
22837;SDS011;11585;51.450;-0.240;2023-04-24T09:11:48;17.55;;;4.88;;
22837;SDS011;11585;51.450;-0.240;2023-04-24T09:14:15;15.00;;;4.80;;
22837;SDS011;11585;51.450;-0.240;2023-04-24T09:16:42;12.05;;;5.28;;
22837;SDS011;11585;51.450;-0.240;2023-04-24T09:19:08;15.27;;;4.90;;
22837;SDS011;11585;51.450;-0.240;2023-04-24T09:21:34;16.83;;;4.82;;
22837;SDS011;11585;51.450;-0.240;2023-04-24T09:24:02;11.82;;;5.13;;
22837;SDS011;11585;51.450;-0.240;2023-04-24T09:26:30;11.95;;;4.70;;
22837;SDS011;11585;51.450;-0.240;2023-04-24T09:28:57;16.40;;;5.20;;
22837;SDS011;11585;51.450;-0.240;2023-04-24T09:31:23;11.57;;;5.30;;
22837;SDS011;11585;51.450;-0.240;2023-04-24T09:34:01;12.45;;;4.90;;
22837;SDS011;11585;51.450;-0.240;2023-04-24T09:39:03;13.00;;;4.68;;
22837;SDS011;11585;51.450;-0.240;2023-04-24T09:41:33;10.68;;;5.75;;
22837;SDS011;11585;51.450;-0.240;2023-04-24T09:44:20;15.50;;;5.10;;
22837;SDS011;11585;51.450;-0.240;2023-04-24T09:46:52;13.10;;;6.00;;
22837;SDS011;11585;51.450;-0.240;2023-04-24T09:49:26;18.48;;;5.45;;
22837;SDS011;11585;51.450;-0.240;2023-04-24T09:52:03;14.20;;;5.15;;
22837;SDS011;11585;51.450;-0.240;2023-04-24T09:54:30;11.02;;;4.40;;
22837;SDS011;11585;51.450;-0.240;2023-04-24T09:56:56;9.55;;;5.38;;
22837;SDS011;11585;51.450;-0.240;2023-04-24T09:59:22;12.18;;;3.97;;
22837;SDS011;11585;51.450;-0.240;2023-04-24T10:01:48;12.63;;;4.50;;
22837;SDS011;11585;51.450;-0.240;2023-04-24T10:04:22;15.30;;;7.70;;
22837;SDS011;11585;51.450;-0.240;2023-04-24T10:06:49;12.23;;;5.28;;
22837;SDS011;11585;51.450;-0.240;2023-04-24T10:09:18;14.20;;;5.18;;
22837;SDS011;11585;51.450;-0.240;2023-04-24T10:11:46;11.32;;;5.32;;
22837;SDS011;11585;51.450;-0.240;2023-04-24T10:14:16;10.93;;;5.18;;
22837;SDS011;11585;51.450;-0.240;2023-04-24T10:16:43;14.48;;;5.40;;
22837;SDS011;11585;51.450;-0.240;2023-04-24T10:19:11;14.80;;;5.90;;
22837;SDS011;11585;51.450;-0.240;2023-04-24T10:21:38;15.50;;;5.25;;
22837;SDS011;11585;51.450;-0.240;2023-04-24T10:24:12;10.15;;;5.32;;
22837;SDS011;11585;51.450;-0.240;2023-04-24T10:26:41;15.95;;;4.93;;
22837;SDS011;11585;51.450;-0.240;2023-04-24T10:29:10;19.30;;;6.68;;
22837;SDS011;11585;51.450;-0.240;2023-04-24T10:31:37;14.43;;;6.07;;
22837;SDS011;11585;51.450;-0.240;2023-04-24T10:34:07;18.80;;;6.57;;
22837;SDS011;11585;51.450;-0.240;2023-04-24T10:36:35;13.77;;;6.38;;
22837;SDS011;11585;51.450;-0.240;2023-04-24T10:39:06;18.00;;;6.05;;
22837;SDS011;11585;51.450;-0.240;2023-04-24T10:41:36;15.05;;;5.70;;
22837;SDS011;11585;51.450;-0.240;2023-04-24T10:44:13;13.60;;;5.75;;
22837;SDS011;11585;51.450;-0.240;2023-04-24T10:46:53;15.95;;;6.22;;
22837;SDS011;11585;51.450;-0.240;2023-04-24T10:49:29;16.65;;;5.93;;
22837;SDS011;11585;51.450;-0.240;2023-04-24T10:51:59;21.23;;;6.80;;
22837;SDS011;11585;51.450;-0.240;2023-04-24T10:54:33;11.77;;;6.00;;
22837;SDS011;11585;51.450;-0.240;2023-04-24T10:59:50;15.98;;;6.07;;
22837;SDS011;11585;51.450;-0.240;2023-04-24T11:02:37;20.33;;;6.47;;
22837;SDS011;11585;51.450;-0.240;2023-04-24T11:05:05;14.65;;;6.18;;
22837;SDS011;11585;51.450;-0.240;2023-04-24T11:10:54;15.90;;;5.70;;
22837;SDS011;11585;51.450;-0.240;2023-04-24T11:13:22;13.60;;;5.63;;
22837;SDS011;11585;51.450;-0.240;2023-04-24T11:18:38;14.10;;;6.18;;
22837;SDS011;11585;51.450;-0.240;2023-04-24T11:21:12;13.93;;;5.43;;
22837;SDS011;11585;51.450;-0.240;2023-04-24T11:23:38;13.20;;;5.95;;
22837;SDS011;11585;51.450;-0.240;2023-04-24T11:26:17;12.25;;;5.45;;
22837;SDS011;11585;51.450;-0.240;2023-04-24T11:28:45;13.77;;;6.38;;
22837;SDS011;11585;51.450;-0.240;2023-04-24T11:34:08;26.92;;;6.95;;
22837;SDS011;11585;51.450;-0.240;2023-04-24T11:36:38;14.40;;;6.00;;
22837;SDS011;11585;51.450;-0.240;2023-04-24T11:39:07;20.33;;;6.95;;
22837;SDS011;11585;51.450;-0.240;2023-04-24T11:41:33;14.00;;;6.00;;
22837;SDS011;11585;51.450;-0.240;2023-04-24T11:44:00;15.50;;;6.55;;
22837;SDS011;11585;51.450;-0.240;2023-04-24T11:46:28;19.75;;;6.90;;
22837;SDS011;11585;51.450;-0.240;2023-04-24T11:48:55;14.30;;;6.28;;
22837;SDS011;11585;51.450;-0.240;2023-04-24T11:51:26;18.90;;;8.00;;
22837;SDS011;11585;51.450;-0.240;2023-04-24T11:53:53;11.85;;;6.32;;
22837;SDS011;11585;51.450;-0.240;2023-04-24T11:56:25;14.18;;;6.45;;
22837;SDS011;11585;51.450;-0.240;2023-04-24T11:58:59;16.52;;;6.32;;
22837;SDS011;11585;51.450;-0.240;2023-04-24T12:01:27;16.15;;;6.38;;
22837;SDS011;11585;51.450;-0.240;2023-04-24T12:03:58;13.80;;;5.78;;
22837;SDS011;11585;51.450;-0.240;2023-04-24T12:06:25;16.15;;;6.18;;
22837;SDS011;11585;51.450;-0.240;2023-04-24T12:09:01;13.33;;;6.77;;
22837;SDS011;11585;51.450;-0.240;2023-04-24T12:11:30;12.55;;;6.35;;
22837;SDS011;11585;51.450;-0.240;2023-04-24T12:14:09;15.63;;;6.80;;
22837;SDS011;11585;51.450;-0.240;2023-04-24T12:16:39;11.68;;;6.38;;
22837;SDS011;11585;51.450;-0.240;2023-04-24T12:19:16;18.77;;;6.78;;
22837;SDS011;11585;51.450;-0.240;2023-04-24T12:21:58;18.65;;;7.07;;
22837;SDS011;11585;51.450;-0.240;2023-04-24T12:24:25;12.65;;;6.32;;
22837;SDS011;11585;51.450;-0.240;2023-04-24T12:26:51;15.60;;;7.13;;
22837;SDS011;11585;51.450;-0.240;2023-04-24T12:29:21;14.63;;;6.50;;
22837;SDS011;11585;51.450;-0.240;2023-04-24T12:31:48;15.18;;;6.75;;
22837;SDS011;11585;51.450;-0.240;2023-04-24T12:34:21;13.35;;;6.10;;
22837;SDS011;11585;51.450;-0.240;2023-04-24T12:36:48;15.93;;;6.18;;
22837;SDS011;11585;51.450;-0.240;2023-04-24T12:39:17;15.18;;;6.82;;
22837;SDS011;11585;51.450;-0.240;2023-04-24T12:41:56;11.55;;;6.05;;
22837;SDS011;11585;51.450;-0.240;2023-04-24T12:44:31;10.88;;;6.18;;
22837;SDS011;11585;51.450;-0.240;2023-04-24T12:46:59;20.67;;;6.60;;
22837;SDS011;11585;51.450;-0.240;2023-04-24T12:49:29;12.05;;;6.57;;
22837;SDS011;11585;51.450;-0.240;2023-04-24T12:51:55;14.65;;;7.55;;
22837;SDS011;11585;51.450;-0.240;2023-04-24T12:54:21;21.35;;;7.85;;
22837;SDS011;11585;51.450;-0.240;2023-04-24T12:56:47;10.48;;;6.22;;
22837;SDS011;11585;51.450;-0.240;2023-04-24T12:59:13;16.80;;;6.82;;
22837;SDS011;11585;51.450;-0.240;2023-04-24T13:01:39;15.70;;;6.93;;
22837;SDS011;11585;51.450;-0.240;2023-04-24T13:04:05;18.70;;;8.27;;
22837;SDS011;11585;51.450;-0.240;2023-04-24T13:06:31;14.00;;;6.68;;
22837;SDS011;11585;51.450;-0.240;2023-04-24T13:08:57;10.48;;;6.50;;
22837;SDS011;11585;51.450;-0.240;2023-04-24T13:11:28;22.88;;;7.60;;
22837;SDS011;11585;51.450;-0.240;2023-04-24T13:13:54;13.95;;;6.28;;
22837;SDS011;11585;51.450;-0.240;2023-04-24T13:16:20;13.80;;;6.45;;
22837;SDS011;11585;51.450;-0.240;2023-04-24T13:18:45;15.10;;;5.95;;
22837;SDS011;11585;51.450;-0.240;2023-04-24T13:21:11;10.77;;;5.72;;
22837;SDS011;11585;51.450;-0.240;2023-04-24T13:24:00;11.20;;;6.05;;
22837;SDS011;11585;51.450;-0.240;2023-04-24T13:26:26;15.30;;;7.63;;
22837;SDS011;11585;51.450;-0.240;2023-04-24T13:28:51;39.25;;;20.52;;
22837;SDS011;11585;51.450;-0.240;2023-04-24T13:31:17;25.13;;;11.73;;
22837;SDS011;11585;51.450;-0.240;2023-04-24T13:33:43;13.63;;;6.68;;
22837;SDS011;11585;51.450;-0.240;2023-04-24T13:36:09;12.65;;;6.40;;
22837;SDS011;11585;51.450;-0.240;2023-04-24T13:38:35;17.52;;;6.00;;
22837;SDS011;11585;51.450;-0.240;2023-04-24T13:41:00;14.98;;;7.60;;
22837;SDS011;11585;51.450;-0.240;2023-04-24T13:43:26;11.20;;;6.35;;
22837;SDS011;11585;51.450;-0.240;2023-04-24T13:45:55;11.35;;;6.22;;
22837;SDS011;11585;51.450;-0.240;2023-04-24T13:48:20;13.95;;;6.45;;
22837;SDS011;11585;51.450;-0.240;2023-04-24T13:50:46;9.63;;;5.60;;
22837;SDS011;11585;51.450;-0.240;2023-04-24T13:53:15;12.40;;;6.43;;
22837;SDS011;11585;51.450;-0.240;2023-04-24T13:55:41;9.35;;;5.72;;
22837;SDS011;11585;51.450;-0.240;2023-04-24T13:58:08;12.05;;;6.97;;
22837;SDS011;11585;51.450;-0.240;2023-04-24T14:00:33;14.05;;;5.93;;
22837;SDS011;11585;51.450;-0.240;2023-04-24T14:02:59;13.10;;;7.07;;
22837;SDS011;11585;51.450;-0.240;2023-04-24T14:05:25;10.88;;;7.28;;
22837;SDS011;11585;51.450;-0.240;2023-04-24T14:10:37;15.43;;;6.20;;
22837;SDS011;11585;51.450;-0.240;2023-04-24T14:13:03;11.50;;;5.60;;
22837;SDS011;11585;51.450;-0.240;2023-04-24T14:15:29;8.43;;;5.57;;
22837;SDS011;11585;51.450;-0.240;2023-04-24T14:31:06;11.98;;;5.70;;
22837;SDS011;11585;51.450;-0.240;2023-04-24T14:33:33;10.88;;;5.28;;
22837;SDS011;11585;51.450;-0.240;2023-04-24T14:36:00;7.28;;;4.68;;
22837;SDS011;11585;51.450;-0.240;2023-04-24T14:41:49;12.93;;;5.70;;
22837;SDS011;11585;51.450;-0.240;2023-04-24T14:44:15;9.57;;;5.13;;
22837;SDS011;11585;51.450;-0.240;2023-04-24T14:46:43;10.80;;;5.05;;
22837;SDS011;11585;51.450;-0.240;2023-04-24T14:52:02;12.52;;;4.97;;
22837;SDS011;11585;51.450;-0.240;2023-04-24T14:54:30;12.63;;;5.70;;
22837;SDS011;11585;51.450;-0.240;2023-04-24T14:56:56;10.00;;;5.40;;
22837;SDS011;11585;51.450;-0.240;2023-04-24T15:02:48;9.52;;;4.78;;
22837;SDS011;11585;51.450;-0.240;2023-04-24T15:05:13;7.75;;;3.50;;
22837;SDS011;11585;51.450;-0.240;2023-04-24T15:11:01;4.05;;;2.92;;
22837;SDS011;11585;51.450;-0.240;2023-04-24T15:16:16;7.18;;;4.28;;
22837;SDS011;11585;51.450;-0.240;2023-04-24T15:18:50;7.55;;;4.70;;
22837;SDS011;11585;51.450;-0.240;2023-04-24T15:21:15;5.57;;;3.63;;
22837;SDS011;11585;51.450;-0.240;2023-04-24T15:23:41;5.40;;;3.90;;
22837;SDS011;11585;51.450;-0.240;2023-04-24T15:26:07;6.00;;;3.92;;
22837;SDS011;11585;51.450;-0.240;2023-04-24T15:28:33;6.55;;;4.18;;
22837;SDS011;11585;51.450;-0.240;2023-04-24T15:30:58;6.30;;;4.07;;
22837;SDS011;11585;51.450;-0.240;2023-04-24T15:33:24;8.23;;;4.70;;
22837;SDS011;11585;51.450;-0.240;2023-04-24T15:35:50;7.43;;;4.65;;
22837;SDS011;11585;51.450;-0.240;2023-04-24T15:38:16;8.18;;;4.80;;
22837;SDS011;11585;51.450;-0.240;2023-04-24T15:40:51;9.77;;;5.45;;
22837;SDS011;11585;51.450;-0.240;2023-04-24T15:45:49;8.40;;;4.88;;
22837;SDS011;11585;51.450;-0.240;2023-04-24T15:48:35;11.38;;;5.43;;
22837;SDS011;11585;51.450;-0.240;2023-04-24T15:51:03;12.88;;;5.95;;
22837;SDS011;11585;51.450;-0.240;2023-04-24T15:53:59;8.27;;;4.93;;
22837;SDS011;11585;51.450;-0.240;2023-04-24T15:56:30;11.40;;;5.15;;
22837;SDS011;11585;51.450;-0.240;2023-04-24T15:59:06;25.85;;;9.70;;
22837;SDS011;11585;51.450;-0.240;2023-04-24T16:01:45;13.13;;;6.45;;
22837;SDS011;11585;51.450;-0.240;2023-04-24T16:04:19;12.45;;;6.40;;
22837;SDS011;11585;51.450;-0.240;2023-04-24T16:07:24;14.75;;;5.97;;
22837;SDS011;11585;51.450;-0.240;2023-04-24T16:09:54;8.80;;;5.63;;
22837;SDS011;11585;51.450;-0.240;2023-04-24T16:12:33;10.50;;;5.80;;
22837;SDS011;11585;51.450;-0.240;2023-04-24T16:21:48;13.88;;;5.70;;
22837;SDS011;11585;51.450;-0.240;2023-04-24T16:24:18;14.18;;;6.43;;
22837;SDS011;11585;51.450;-0.240;2023-04-24T16:26:56;12.60;;;6.38;;
22837;SDS011;11585;51.450;-0.240;2023-04-24T16:35:33;11.38;;;5.10;;
22837;SDS011;11585;51.450;-0.240;2023-04-24T16:38:34;12.02;;;5.28;;
22837;SDS011;11585;51.450;-0.240;2023-04-24T16:41:18;11.30;;;5.22;;
22837;SDS011;11585;51.450;-0.240;2023-04-24T16:47:13;10.10;;;4.70;;
22837;SDS011;11585;51.450;-0.240;2023-04-24T16:50:04;6.10;;;3.53;;
22837;SDS011;11585;51.450;-0.240;2023-04-24T16:52:47;12.68;;;4.80;;
22837;SDS011;11585;51.450;-0.240;2023-04-24T16:58:22;9.40;;;4.47;;
22837;SDS011;11585;51.450;-0.240;2023-04-24T17:00:55;22.98;;;7.75;;
22837;SDS011;11585;51.450;-0.240;2023-04-24T17:03:38;35.65;;;13.48;;
22837;SDS011;11585;51.450;-0.240;2023-04-24T17:06:16;109.30;;;29.83;;
22837;SDS011;11585;51.450;-0.240;2023-04-24T17:12:10;7.57;;;4.90;;
22837;SDS011;11585;51.450;-0.240;2023-04-24T17:14:47;11.30;;;5.32;;
22837;SDS011;11585;51.450;-0.240;2023-04-24T17:17:16;23.52;;;7.43;;
22837;SDS011;11585;51.450;-0.240;2023-04-24T17:19:52;26.30;;;9.13;;
22837;SDS011;11585;51.450;-0.240;2023-04-24T17:22:21;19.05;;;7.63;;
22837;SDS011;11585;51.450;-0.240;2023-04-24T17:24:47;10.38;;;6.00;;
22837;SDS011;11585;51.450;-0.240;2023-04-24T17:27:31;17.92;;;7.72;;
22837;SDS011;11585;51.450;-0.240;2023-04-24T17:29:57;29.17;;;10.48;;
22837;SDS011;11585;51.450;-0.240;2023-04-24T17:32:26;35.15;;;13.00;;
22837;SDS011;11585;51.450;-0.240;2023-04-24T17:34:52;28.15;;;9.77;;
22837;SDS011;11585;51.450;-0.240;2023-04-24T17:37:23;31.80;;;10.98;;
22837;SDS011;11585;51.450;-0.240;2023-04-24T17:39:52;15.15;;;6.22;;
22837;SDS011;11585;51.450;-0.240;2023-04-24T17:42:17;33.35;;;11.95;;
22837;SDS011;11585;51.450;-0.240;2023-04-24T17:44:49;19.52;;;8.80;;
22837;SDS011;11585;51.450;-0.240;2023-04-24T17:47:23;17.13;;;7.32;;
22837;SDS011;11585;51.450;-0.240;2023-04-24T17:49:53;17.20;;;7.13;;
22837;SDS011;11585;51.450;-0.240;2023-04-24T17:52:24;19.25;;;7.25;;
22837;SDS011;11585;51.450;-0.240;2023-04-24T17:54:53;18.52;;;7.20;;
22837;SDS011;11585;51.450;-0.240;2023-04-24T17:57:18;17.33;;;7.60;;
22837;SDS011;11585;51.450;-0.240;2023-04-24T17:59:44;15.32;;;7.68;;
22837;SDS011;11585;51.450;-0.240;2023-04-24T18:02:13;16.58;;;7.28;;
22837;SDS011;11585;51.450;-0.240;2023-04-24T18:04:39;20.75;;;8.10;;
22837;SDS011;11585;51.450;-0.240;2023-04-24T18:07:07;22.77;;;9.38;;
22837;SDS011;11585;51.450;-0.240;2023-04-24T18:09:35;25.05;;;7.88;;
22837;SDS011;11585;51.450;-0.240;2023-04-24T18:12:01;27.98;;;9.82;;
22837;SDS011;11585;51.450;-0.240;2023-04-24T18:14:26;34.45;;;10.70;;
22837;SDS011;11585;51.450;-0.240;2023-04-24T18:16:53;33.50;;;11.25;;
22837;SDS011;11585;51.450;-0.240;2023-04-24T18:21:47;28.67;;;10.38;;
22837;SDS011;11585;51.450;-0.240;2023-04-24T18:24:16;30.53;;;9.37;;